Warren, Ohio
Current Conditions -  °F | °C
As of 7:51 PM on Monday 20 Oct 2014 (Local Time) from KYNG Reporting Station
Light Rain Light Rain  
Wind Chill: 51°   Ceiling: 2600
Heat Index: 51°   Visibility: 10mi
Dew Point: 46°   Wind: 8mph
Humidity: 83%   Direction: 220°SW
Pressure: 29.86"   Gusts: NA
Location:  41.24°N, 80.81°W
Report Text: KYNG 202351Z 22007KT 10SM -RA BKN026 OVC039 11/08 A2986 RMK AO2 SLP116 P0001 60001 T01060078 10128 20106 53006
Loading
Personal Weather Stations






























Interactive Weather Map
Tropical Storm Tracking
New forecast layout! Learn more

10-Day Weather Forecast

Advertisements
Track Severe Weather on mobile